sensor_id;sensor_type;location;lat;lon;timestamp;P1;durP1;ratioP1;P2;durP2;ratioP2
13685;SDS011;6915;48.296;8.874;2024-01-10T00:00:14;37.13;;;19.70;;
13685;SDS011;6915;48.296;8.874;2024-01-10T00:02:41;39.87;;;19.77;;
13685;SDS011;6915;48.296;8.874;2024-01-10T00:05:10;38.03;;;19.23;;
13685;SDS011;6915;48.296;8.874;2024-01-10T00:07:36;37.07;;;18.90;;
13685;SDS011;6915;48.296;8.874;2024-01-10T00:10:04;36.17;;;18.23;;
13685;SDS011;6915;48.296;8.874;2024-01-10T00:12:31;35.37;;;19.37;;
13685;SDS011;6915;48.296;8.874;2024-01-10T00:15:01;41.00;;;19.00;;
13685;SDS011;6915;48.296;8.874;2024-01-10T00:17:29;37.63;;;19.20;;
13685;SDS011;6915;48.296;8.874;2024-01-10T00:19:56;35.20;;;17.10;;
13685;SDS011;6915;48.296;8.874;2024-01-10T00:22:25;38.17;;;19.57;;
13685;SDS011;6915;48.296;8.874;2024-01-10T00:24:51;36.03;;;18.70;;
13685;SDS011;6915;48.296;8.874;2024-01-10T00:27:18;36.00;;;19.73;;
13685;SDS011;6915;48.296;8.874;2024-01-10T00:29:47;37.80;;;20.00;;
13685;SDS011;6915;48.296;8.874;2024-01-10T00:32:16;45.33;;;21.30;;
13685;SDS011;6915;48.296;8.874;2024-01-10T00:34:43;38.17;;;19.77;;
13685;SDS011;6915;48.296;8.874;2024-01-10T00:37:10;41.87;;;20.40;;
13685;SDS011;6915;48.296;8.874;2024-01-10T00:39:38;34.73;;;18.67;;
13685;SDS011;6915;48.296;8.874;2024-01-10T00:42:05;39.13;;;20.40;;
13685;SDS011;6915;48.296;8.874;2024-01-10T00:44:32;43.73;;;22.17;;
13685;SDS011;6915;48.296;8.874;2024-01-10T00:47:00;41.80;;;21.50;;
13685;SDS011;6915;48.296;8.874;2024-01-10T00:49:26;45.73;;;23.33;;
13685;SDS011;6915;48.296;8.874;2024-01-10T00:51:53;44.23;;;24.03;;
13685;SDS011;6915;48.296;8.874;2024-01-10T00:54:20;46.27;;;23.30;;
13685;SDS011;6915;48.296;8.874;2024-01-10T00:56:47;40.30;;;22.03;;
13685;SDS011;6915;48.296;8.874;2024-01-10T00:59:15;43.97;;;21.60;;
13685;SDS011;6915;48.296;8.874;2024-01-10T01:01:42;40.97;;;21.53;;
13685;SDS011;6915;48.296;8.874;2024-01-10T01:04:09;45.70;;;21.90;;
13685;SDS011;6915;48.296;8.874;2024-01-10T01:06:36;39.63;;;21.57;;
13685;SDS011;6915;48.296;8.874;2024-01-10T01:09:03;43.53;;;22.37;;
13685;SDS011;6915;48.296;8.874;2024-01-10T01:11:30;47.40;;;23.47;;
13685;SDS011;6915;48.296;8.874;2024-01-10T01:13:58;43.50;;;22.77;;
13685;SDS011;6915;48.296;8.874;2024-01-10T01:16:25;41.17;;;22.10;;
13685;SDS011;6915;48.296;8.874;2024-01-10T01:18:52;47.40;;;23.77;;
13685;SDS011;6915;48.296;8.874;2024-01-10T01:21:18;41.43;;;22.90;;
13685;SDS011;6915;48.296;8.874;2024-01-10T01:23:46;45.97;;;22.50;;
13685;SDS011;6915;48.296;8.874;2024-01-10T01:26:13;38.67;;;21.77;;
13685;SDS011;6915;48.296;8.874;2024-01-10T01:28:39;36.40;;;20.73;;
13685;SDS011;6915;48.296;8.874;2024-01-10T01:31:08;41.37;;;21.97;;
13685;SDS011;6915;48.296;8.874;2024-01-10T01:33:34;39.70;;;21.60;;
13685;SDS011;6915;48.296;8.874;2024-01-10T01:36:01;41.93;;;21.73;;
13685;SDS011;6915;48.296;8.874;2024-01-10T01:38:28;40.60;;;21.97;;
13685;SDS011;6915;48.296;8.874;2024-01-10T01:40:55;41.27;;;21.73;;
13685;SDS011;6915;48.296;8.874;2024-01-10T01:43:23;42.60;;;21.97;;
13685;SDS011;6915;48.296;8.874;2024-01-10T01:45:51;35.87;;;20.07;;
13685;SDS011;6915;48.296;8.874;2024-01-10T01:48:21;45.10;;;21.77;;
13685;SDS011;6915;48.296;8.874;2024-01-10T01:50:50;36.90;;;21.03;;
13685;SDS011;6915;48.296;8.874;2024-01-10T01:53:20;40.47;;;21.60;;
13685;SDS011;6915;48.296;8.874;2024-01-10T01:55:47;38.70;;;21.67;;
13685;SDS011;6915;48.296;8.874;2024-01-10T01:58:15;39.73;;;21.57;;
13685;SDS011;6915;48.296;8.874;2024-01-10T02:00:43;37.67;;;20.47;;
13685;SDS011;6915;48.296;8.874;2024-01-10T02:03:10;37.27;;;20.73;;
13685;SDS011;6915;48.296;8.874;2024-01-10T02:05:39;38.70;;;21.27;;
13685;SDS011;6915;48.296;8.874;2024-01-10T02:08:06;39.77;;;21.07;;
13685;SDS011;6915;48.296;8.874;2024-01-10T02:10:34;37.07;;;20.20;;
13685;SDS011;6915;48.296;8.874;2024-01-10T02:13:01;42.53;;;21.50;;
13685;SDS011;6915;48.296;8.874;2024-01-10T02:15:28;39.13;;;21.20;;
13685;SDS011;6915;48.296;8.874;2024-01-10T02:17:54;40.43;;;20.83;;
13685;SDS011;6915;48.296;8.874;2024-01-10T02:20:27;36.83;;;21.00;;
13685;SDS011;6915;48.296;8.874;2024-01-10T02:22:55;40.47;;;20.77;;
13685;SDS011;6915;48.296;8.874;2024-01-10T02:25:23;39.00;;;21.23;;
13685;SDS011;6915;48.296;8.874;2024-01-10T02:27:50;37.93;;;20.73;;
13685;SDS011;6915;48.296;8.874;2024-01-10T02:30:17;40.00;;;20.47;;
13685;SDS011;6915;48.296;8.874;2024-01-10T02:32:43;36.47;;;20.63;;
13685;SDS011;6915;48.296;8.874;2024-01-10T02:35:10;37.67;;;20.80;;
13685;SDS011;6915;48.296;8.874;2024-01-10T02:37:37;36.27;;;19.67;;
13685;SDS011;6915;48.296;8.874;2024-01-10T02:40:04;36.73;;;19.50;;
13685;SDS011;6915;48.296;8.874;2024-01-10T02:45:03;36.40;;;19.70;;
13685;SDS011;6915;48.296;8.874;2024-01-10T02:47:30;42.00;;;21.20;;
13685;SDS011;6915;48.296;8.874;2024-01-10T02:49:57;38.63;;;21.07;;
13685;SDS011;6915;48.296;8.874;2024-01-10T02:52:24;36.90;;;20.47;;
13685;SDS011;6915;48.296;8.874;2024-01-10T02:54:51;36.67;;;20.33;;
13685;SDS011;6915;48.296;8.874;2024-01-10T02:57:18;36.10;;;20.00;;
13685;SDS011;6915;48.296;8.874;2024-01-10T02:59:45;39.00;;;20.40;;
13685;SDS011;6915;48.296;8.874;2024-01-10T03:02:13;38.23;;;20.43;;
13685;SDS011;6915;48.296;8.874;2024-01-10T03:04:41;36.30;;;19.80;;
13685;SDS011;6915;48.296;8.874;2024-01-10T03:07:08;39.17;;;20.63;;
13685;SDS011;6915;48.296;8.874;2024-01-10T03:09:35;37.30;;;20.20;;
13685;SDS011;6915;48.296;8.874;2024-01-10T03:12:03;36.63;;;20.73;;
13685;SDS011;6915;48.296;8.874;2024-01-10T03:14:30;35.03;;;19.77;;
13685;SDS011;6915;48.296;8.874;2024-01-10T03:16:57;36.83;;;19.97;;
13685;SDS011;6915;48.296;8.874;2024-01-10T03:19:25;36.80;;;20.77;;
13685;SDS011;6915;48.296;8.874;2024-01-10T03:21:52;35.07;;;19.27;;
13685;SDS011;6915;48.296;8.874;2024-01-10T03:24:19;34.10;;;20.03;;
13685;SDS011;6915;48.296;8.874;2024-01-10T03:26:49;35.47;;;19.20;;
13685;SDS011;6915;48.296;8.874;2024-01-10T03:29:15;36.83;;;19.33;;
13685;SDS011;6915;48.296;8.874;2024-01-10T03:31:42;37.23;;;19.50;;
13685;SDS011;6915;48.296;8.874;2024-01-10T03:34:09;32.67;;;18.87;;
13685;SDS011;6915;48.296;8.874;2024-01-10T03:36:37;38.43;;;20.23;;
13685;SDS011;6915;48.296;8.874;2024-01-10T03:39:04;33.20;;;18.47;;
13685;SDS011;6915;48.296;8.874;2024-01-10T03:41:31;37.63;;;20.60;;
13685;SDS011;6915;48.296;8.874;2024-01-10T03:43:58;36.73;;;20.63;;
13685;SDS011;6915;48.296;8.874;2024-01-10T03:46:25;36.73;;;19.70;;
13685;SDS011;6915;48.296;8.874;2024-01-10T03:48:52;37.17;;;19.97;;
13685;SDS011;6915;48.296;8.874;2024-01-10T03:51:19;34.50;;;19.93;;
13685;SDS011;6915;48.296;8.874;2024-01-10T03:53:47;33.80;;;19.27;;
13685;SDS011;6915;48.296;8.874;2024-01-10T03:56:16;38.43;;;20.53;;
13685;SDS011;6915;48.296;8.874;2024-01-10T03:58:42;34.13;;;19.40;;
13685;SDS011;6915;48.296;8.874;2024-01-10T04:01:09;35.90;;;19.97;;
13685;SDS011;6915;48.296;8.874;2024-01-10T04:03:36;36.40;;;19.90;;
13685;SDS011;6915;48.296;8.874;2024-01-10T04:06:06;34.90;;;19.73;;
13685;SDS011;6915;48.296;8.874;2024-01-10T04:08:33;32.17;;;18.20;;
13685;SDS011;6915;48.296;8.874;2024-01-10T04:11:02;35.73;;;19.93;;
13685;SDS011;6915;48.296;8.874;2024-01-10T04:13:29;32.57;;;19.30;;
13685;SDS011;6915;48.296;8.874;2024-01-10T04:15:56;34.53;;;19.87;;
13685;SDS011;6915;48.296;8.874;2024-01-10T04:18:23;37.77;;;20.33;;
13685;SDS011;6915;48.296;8.874;2024-01-10T04:20:49;33.67;;;19.80;;
13685;SDS011;6915;48.296;8.874;2024-01-10T04:23:16;34.50;;;19.67;;
13685;SDS011;6915;48.296;8.874;2024-01-10T04:25:43;35.57;;;19.53;;
13685;SDS011;6915;48.296;8.874;2024-01-10T04:28:11;34.87;;;19.37;;
13685;SDS011;6915;48.296;8.874;2024-01-10T04:30:38;34.37;;;19.47;;
13685;SDS011;6915;48.296;8.874;2024-01-10T04:33:05;36.00;;;19.90;;
13685;SDS011;6915;48.296;8.874;2024-01-10T04:35:32;37.17;;;20.57;;
13685;SDS011;6915;48.296;8.874;2024-01-10T04:37:59;34.40;;;19.10;;
13685;SDS011;6915;48.296;8.874;2024-01-10T04:40:26;33.43;;;18.17;;
13685;SDS011;6915;48.296;8.874;2024-01-10T04:42:53;35.37;;;20.30;;
13685;SDS011;6915;48.296;8.874;2024-01-10T04:45:21;36.23;;;19.60;;
13685;SDS011;6915;48.296;8.874;2024-01-10T04:47:48;33.33;;;18.60;;
13685;SDS011;6915;48.296;8.874;2024-01-10T04:50:15;39.60;;;20.30;;
13685;SDS011;6915;48.296;8.874;2024-01-10T04:52:41;36.83;;;20.00;;
13685;SDS011;6915;48.296;8.874;2024-01-10T04:55:08;37.93;;;21.40;;
13685;SDS011;6915;48.296;8.874;2024-01-10T04:57:36;35.50;;;20.30;;
13685;SDS011;6915;48.296;8.874;2024-01-10T05:00:04;36.20;;;19.70;;
13685;SDS011;6915;48.296;8.874;2024-01-10T05:02:33;36.57;;;19.90;;
13685;SDS011;6915;48.296;8.874;2024-01-10T05:05:00;34.43;;;19.40;;
13685;SDS011;6915;48.296;8.874;2024-01-10T05:07:29;35.77;;;20.93;;
13685;SDS011;6915;48.296;8.874;2024-01-10T05:09:56;39.70;;;21.63;;
13685;SDS011;6915;48.296;8.874;2024-01-10T05:12:22;36.37;;;20.50;;
13685;SDS011;6915;48.296;8.874;2024-01-10T05:14:50;35.37;;;19.47;;
13685;SDS011;6915;48.296;8.874;2024-01-10T05:17:17;34.57;;;20.03;;
13685;SDS011;6915;48.296;8.874;2024-01-10T05:19:45;36.33;;;20.30;;
13685;SDS011;6915;48.296;8.874;2024-01-10T05:22:12;33.10;;;19.10;;
13685;SDS011;6915;48.296;8.874;2024-01-10T05:24:39;35.83;;;19.83;;
13685;SDS011;6915;48.296;8.874;2024-01-10T05:27:06;34.53;;;19.60;;
13685;SDS011;6915;48.296;8.874;2024-01-10T05:29:33;32.67;;;19.57;;
13685;SDS011;6915;48.296;8.874;2024-01-10T05:32:00;33.97;;;20.00;;
13685;SDS011;6915;48.296;8.874;2024-01-10T05:34:27;34.30;;;18.60;;
13685;SDS011;6915;48.296;8.874;2024-01-10T05:36:55;36.13;;;19.87;;
13685;SDS011;6915;48.296;8.874;2024-01-10T05:39:22;34.10;;;19.50;;
13685;SDS011;6915;48.296;8.874;2024-01-10T05:41:49;33.83;;;19.57;;
13685;SDS011;6915;48.296;8.874;2024-01-10T05:44:16;34.37;;;19.27;;
13685;SDS011;6915;48.296;8.874;2024-01-10T05:46:43;36.93;;;19.77;;
13685;SDS011;6915;48.296;8.874;2024-01-10T05:49:10;32.63;;;19.20;;
13685;SDS011;6915;48.296;8.874;2024-01-10T05:51:37;33.20;;;18.50;;
13685;SDS011;6915;48.296;8.874;2024-01-10T05:54:05;33.83;;;18.47;;
13685;SDS011;6915;48.296;8.874;2024-01-10T05:56:33;37.90;;;19.70;;
13685;SDS011;6915;48.296;8.874;2024-01-10T05:58:59;35.60;;;19.43;;
13685;SDS011;6915;48.296;8.874;2024-01-10T06:01:27;37.33;;;21.13;;
13685;SDS011;6915;48.296;8.874;2024-01-10T06:03:54;36.17;;;19.27;;
13685;SDS011;6915;48.296;8.874;2024-01-10T06:06:21;32.63;;;18.93;;
13685;SDS011;6915;48.296;8.874;2024-01-10T06:08:49;37.80;;;19.93;;
13685;SDS011;6915;48.296;8.874;2024-01-10T06:11:17;33.03;;;19.63;;
13685;SDS011;6915;48.296;8.874;2024-01-10T06:13:44;35.10;;;20.00;;
13685;SDS011;6915;48.296;8.874;2024-01-10T06:16:11;36.83;;;19.87;;
13685;SDS011;6915;48.296;8.874;2024-01-10T06:18:38;37.50;;;18.77;;
13685;SDS011;6915;48.296;8.874;2024-01-10T06:21:05;33.27;;;19.27;;
13685;SDS011;6915;48.296;8.874;2024-01-10T06:23:32;33.80;;;20.10;;
13685;SDS011;6915;48.296;8.874;2024-01-10T06:25:59;34.53;;;19.77;;
13685;SDS011;6915;48.296;8.874;2024-01-10T06:28:27;35.57;;;19.70;;
13685;SDS011;6915;48.296;8.874;2024-01-10T06:30:54;40.20;;;20.70;;
13685;SDS011;6915;48.296;8.874;2024-01-10T06:33:21;33.63;;;19.93;;
13685;SDS011;6915;48.296;8.874;2024-01-10T06:35:48;37.50;;;20.90;;
13685;SDS011;6915;48.296;8.874;2024-01-10T06:38:15;35.00;;;19.37;;
13685;SDS011;6915;48.296;8.874;2024-01-10T06:40:45;39.17;;;20.63;;
13685;SDS011;6915;48.296;8.874;2024-01-10T06:43:12;38.20;;;21.50;;
13685;SDS011;6915;48.296;8.874;2024-01-10T06:45:41;36.07;;;20.90;;
13685;SDS011;6915;48.296;8.874;2024-01-10T06:48:08;39.53;;;21.83;;
13685;SDS011;6915;48.296;8.874;2024-01-10T06:50:35;36.00;;;20.70;;
13685;SDS011;6915;48.296;8.874;2024-01-10T06:53:03;41.07;;;22.80;;
13685;SDS011;6915;48.296;8.874;2024-01-10T06:55:30;43.57;;;22.67;;
13685;SDS011;6915;48.296;8.874;2024-01-10T06:57:57;40.77;;;23.30;;
13685;SDS011;6915;48.296;8.874;2024-01-10T07:00:24;39.87;;;22.37;;
13685;SDS011;6915;48.296;8.874;2024-01-10T07:02:52;40.37;;;21.23;;
13685;SDS011;6915;48.296;8.874;2024-01-10T07:05:19;38.43;;;21.33;;
13685;SDS011;6915;48.296;8.874;2024-01-10T07:07:46;39.23;;;22.53;;
13685;SDS011;6915;48.296;8.874;2024-01-10T07:10:14;42.73;;;23.13;;
13685;SDS011;6915;48.296;8.874;2024-01-10T07:12:41;53.40;;;28.30;;
13685;SDS011;6915;48.296;8.874;2024-01-10T07:15:08;50.90;;;26.70;;
13685;SDS011;6915;48.296;8.874;2024-01-10T07:17:36;46.73;;;26.33;;
13685;SDS011;6915;48.296;8.874;2024-01-10T07:20:05;46.70;;;25.90;;
13685;SDS011;6915;48.296;8.874;2024-01-10T07:22:34;49.33;;;26.70;;
13685;SDS011;6915;48.296;8.874;2024-01-10T07:25:01;47.47;;;25.07;;
13685;SDS011;6915;48.296;8.874;2024-01-10T07:27:28;44.70;;;23.63;;
13685;SDS011;6915;48.296;8.874;2024-01-10T07:29:55;43.50;;;23.73;;
13685;SDS011;6915;48.296;8.874;2024-01-10T07:32:22;47.17;;;24.10;;
13685;SDS011;6915;48.296;8.874;2024-01-10T07:34:49;43.30;;;23.77;;
13685;SDS011;6915;48.296;8.874;2024-01-10T07:37:17;42.63;;;22.10;;
13685;SDS011;6915;48.296;8.874;2024-01-10T07:39:46;39.80;;;22.73;;
13685;SDS011;6915;48.296;8.874;2024-01-10T07:42:12;37.37;;;21.50;;
13685;SDS011;6915;48.296;8.874;2024-01-10T07:44:39;39.03;;;21.90;;
13685;SDS011;6915;48.296;8.874;2024-01-10T07:47:06;38.33;;;21.63;;
13685;SDS011;6915;48.296;8.874;2024-01-10T07:49:33;36.60;;;20.63;;
13685;SDS011;6915;48.296;8.874;2024-01-10T07:52:00;35.30;;;21.00;;
13685;SDS011;6915;48.296;8.874;2024-01-10T07:54:29;38.33;;;21.10;;
13685;SDS011;6915;48.296;8.874;2024-01-10T07:56:57;38.80;;;21.23;;
13685;SDS011;6915;48.296;8.874;2024-01-10T07:59:24;38.63;;;21.37;;
13685;SDS011;6915;48.296;8.874;2024-01-10T08:01:54;36.30;;;20.03;;
13685;SDS011;6915;48.296;8.874;2024-01-10T08:04:23;38.93;;;21.17;;
13685;SDS011;6915;48.296;8.874;2024-01-10T08:06:51;37.13;;;20.40;;
13685;SDS011;6915;48.296;8.874;2024-01-10T08:09:19;34.90;;;19.00;;
13685;SDS011;6915;48.296;8.874;2024-01-10T08:11:47;35.30;;;19.57;;
13685;SDS011;6915;48.296;8.874;2024-01-10T08:14:14;33.80;;;20.73;;
13685;SDS011;6915;48.296;8.874;2024-01-10T08:16:42;33.43;;;19.63;;
13685;SDS011;6915;48.296;8.874;2024-01-10T08:19:09;37.47;;;20.13;;
13685;SDS011;6915;48.296;8.874;2024-01-10T08:21:37;32.83;;;18.87;;
13685;SDS011;6915;48.296;8.874;2024-01-10T08:24:04;37.93;;;20.30;;
13685;SDS011;6915;48.296;8.874;2024-01-10T08:26:32;32.00;;;19.17;;
13685;SDS011;6915;48.296;8.874;2024-01-10T08:29:00;37.40;;;20.57;;
13685;SDS011;6915;48.296;8.874;2024-01-10T08:31:27;35.60;;;19.33;;
13685;SDS011;6915;48.296;8.874;2024-01-10T08:33:54;37.17;;;20.13;;
13685;SDS011;6915;48.296;8.874;2024-01-10T08:36:22;31.53;;;19.63;;
13685;SDS011;6915;48.296;8.874;2024-01-10T08:38:50;36.17;;;19.47;;
13685;SDS011;6915;48.296;8.874;2024-01-10T08:41:17;32.53;;;19.47;;
13685;SDS011;6915;48.296;8.874;2024-01-10T08:46:16;33.27;;;19.53;;
13685;SDS011;6915;48.296;8.874;2024-01-10T08:48:43;34.93;;;20.87;;
13685;SDS011;6915;48.296;8.874;2024-01-10T08:51:10;33.80;;;19.37;;
13685;SDS011;6915;48.296;8.874;2024-01-10T08:53:37;36.50;;;20.43;;
13685;SDS011;6915;48.296;8.874;2024-01-10T08:56:05;34.37;;;20.37;;
13685;SDS011;6915;48.296;8.874;2024-01-10T08:58:33;37.47;;;21.10;;
13685;SDS011;6915;48.296;8.874;2024-01-10T09:01:00;33.90;;;20.43;;
13685;SDS011;6915;48.296;8.874;2024-01-10T09:03:28;38.33;;;21.37;;
13685;SDS011;6915;48.296;8.874;2024-01-10T09:05:55;36.63;;;19.60;;
13685;SDS011;6915;48.296;8.874;2024-01-10T09:08:22;36.53;;;20.03;;
13685;SDS011;6915;48.296;8.874;2024-01-10T09:10:49;39.30;;;20.50;;
13685;SDS011;6915;48.296;8.874;2024-01-10T09:13:16;36.10;;;19.53;;
13685;SDS011;6915;48.296;8.874;2024-01-10T09:15:43;32.87;;;19.67;;
13685;SDS011;6915;48.296;8.874;2024-01-10T09:18:11;38.77;;;21.77;;
13685;SDS011;6915;48.296;8.874;2024-01-10T09:20:40;39.03;;;20.97;;
13685;SDS011;6915;48.296;8.874;2024-01-10T09:23:07;36.90;;;21.57;;
13685;SDS011;6915;48.296;8.874;2024-01-10T09:25:35;38.90;;;20.57;;
13685;SDS011;6915;48.296;8.874;2024-01-10T09:28:03;42.37;;;23.70;;
13685;SDS011;6915;48.296;8.874;2024-01-10T09:30:31;40.73;;;22.60;;
13685;SDS011;6915;48.296;8.874;2024-01-10T09:32:58;46.10;;;24.00;;
13685;SDS011;6915;48.296;8.874;2024-01-10T09:35:25;45.23;;;25.50;;
13685;SDS011;6915;48.296;8.874;2024-01-10T09:37:53;42.17;;;22.63;;
13685;SDS011;6915;48.296;8.874;2024-01-10T09:40:20;39.90;;;22.03;;
13685;SDS011;6915;48.296;8.874;2024-01-10T09:42:51;43.33;;;23.27;;
13685;SDS011;6915;48.296;8.874;2024-01-10T09:45:19;48.57;;;23.30;;
13685;SDS011;6915;48.296;8.874;2024-01-10T09:47:48;41.77;;;23.40;;
13685;SDS011;6915;48.296;8.874;2024-01-10T09:50:18;42.73;;;22.90;;
13685;SDS011;6915;48.296;8.874;2024-01-10T09:52:47;40.77;;;22.87;;
13685;SDS011;6915;48.296;8.874;2024-01-10T09:55:17;41.60;;;22.50;;
13685;SDS011;6915;48.296;8.874;2024-01-10T09:57:46;42.20;;;23.60;;
13685;SDS011;6915;48.296;8.874;2024-01-10T10:00:14;36.27;;;21.50;;
13685;SDS011;6915;48.296;8.874;2024-01-10T10:02:42;38.10;;;21.97;;
13685;SDS011;6915;48.296;8.874;2024-01-10T10:05:12;34.13;;;19.97;;
13685;SDS011;6915;48.296;8.874;2024-01-10T10:07:44;38.80;;;21.37;;
13685;SDS011;6915;48.296;8.874;2024-01-10T10:10:11;38.57;;;21.63;;
13685;SDS011;6915;48.296;8.874;2024-01-10T10:12:45;38.70;;;22.40;;
13685;SDS011;6915;48.296;8.874;2024-01-10T10:15:14;37.03;;;22.30;;
13685;SDS011;6915;48.296;8.874;2024-01-10T10:17:42;39.43;;;23.10;;
13685;SDS011;6915;48.296;8.874;2024-01-10T10:20:14;39.43;;;21.83;;
13685;SDS011;6915;48.296;8.874;2024-01-10T10:22:57;39.63;;;22.13;;
13685;SDS011;6915;48.296;8.874;2024-01-10T10:25:29;42.10;;;22.57;;
13685;SDS011;6915;48.296;8.874;2024-01-10T10:27:59;39.17;;;20.97;;
13685;SDS011;6915;48.296;8.874;2024-01-10T10:30:27;42.57;;;23.53;;
13685;SDS011;6915;48.296;8.874;2024-01-10T10:32:54;38.67;;;21.73;;
13685;SDS011;6915;48.296;8.874;2024-01-10T10:35:21;41.17;;;21.70;;
13685;SDS011;6915;48.296;8.874;2024-01-10T10:37:49;38.73;;;23.07;;
13685;SDS011;6915;48.296;8.874;2024-01-10T10:40:17;43.87;;;24.50;;
13685;SDS011;6915;48.296;8.874;2024-01-10T10:42:45;39.70;;;21.93;;
13685;SDS011;6915;48.296;8.874;2024-01-10T10:45:15;41.67;;;23.03;;
13685;SDS011;6915;48.296;8.874;2024-01-10T10:47:43;43.50;;;22.93;;
13685;SDS011;6915;48.296;8.874;2024-01-10T10:50:17;39.57;;;22.33;;
13685;SDS011;6915;48.296;8.874;2024-01-10T10:52:47;44.63;;;23.23;;
13685;SDS011;6915;48.296;8.874;2024-01-10T10:55:15;38.60;;;22.80;;
13685;SDS011;6915;48.296;8.874;2024-01-10T10:57:44;38.63;;;21.83;;
13685;SDS011;6915;48.296;8.874;2024-01-10T11:03:35;52.37;;;27.83;;
13685;SDS011;6915;48.296;8.874;2024-01-10T11:06:03;52.40;;;27.80;;
13685;SDS011;6915;48.296;8.874;2024-01-10T11:11:36;53.73;;;26.93;;
13685;SDS011;6915;48.296;8.874;2024-01-10T11:14:20;50.03;;;26.87;;
13685;SDS011;6915;48.296;8.874;2024-01-10T11:17:01;52.33;;;28.73;;
13685;SDS011;6915;48.296;8.874;2024-01-10T11:20:05;50.87;;;26.77;;
13685;SDS011;6915;48.296;8.874;2024-01-10T11:22:56;50.53;;;28.00;;
13685;SDS011;6915;48.296;8.874;2024-01-10T11:25:36;50.33;;;25.77;;
13685;SDS011;6915;48.296;8.874;2024-01-10T11:28:04;51.27;;;27.03;;
13685;SDS011;6915;48.296;8.874;2024-01-10T11:30:34;49.37;;;26.63;;
13685;SDS011;6915;48.296;8.874;2024-01-10T11:33:09;48.17;;;27.27;;
13685;SDS011;6915;48.296;8.874;2024-01-10T11:38:39;48.73;;;25.40;;
13685;SDS011;6915;48.296;8.874;2024-01-10T11:41:10;49.37;;;25.70;;
13685;SDS011;6915;48.296;8.874;2024-01-10T11:43:37;47.60;;;26.33;;
13685;SDS011;6915;48.296;8.874;2024-01-10T11:46:05;46.80;;;26.17;;
13685;SDS011;6915;48.296;8.874;2024-01-10T11:48:32;43.87;;;25.60;;
13685;SDS011;6915;48.296;8.874;2024-01-10T11:50:59;51.73;;;25.80;;
13685;SDS011;6915;48.296;8.874;2024-01-10T11:53:44;51.00;;;25.80;;
13685;SDS011;6915;48.296;8.874;2024-01-10T11:56:13;45.87;;;25.97;;
13685;SDS011;6915;48.296;8.874;2024-01-10T11:58:54;44.63;;;25.10;;
13685;SDS011;6915;48.296;8.874;2024-01-10T12:01:22;49.00;;;25.63;;
13685;SDS011;6915;48.296;8.874;2024-01-10T12:03:50;50.13;;;24.80;;
13685;SDS011;6915;48.296;8.874;2024-01-10T12:06:19;48.77;;;26.43;;
13685;SDS011;6915;48.296;8.874;2024-01-10T12:08:49;44.87;;;26.63;;
13685;SDS011;6915;48.296;8.874;2024-01-10T12:11:16;48.60;;;25.70;;
13685;SDS011;6915;48.296;8.874;2024-01-10T12:13:43;47.83;;;25.83;;
13685;SDS011;6915;48.296;8.874;2024-01-10T12:16:10;44.60;;;25.23;;
13685;SDS011;6915;48.296;8.874;2024-01-10T12:18:38;42.43;;;25.37;;
13685;SDS011;6915;48.296;8.874;2024-01-10T12:21:05;44.83;;;24.97;;
13685;SDS011;6915;48.296;8.874;2024-01-10T12:23:33;48.60;;;27.40;;
13685;SDS011;6915;48.296;8.874;2024-01-10T12:26:02;45.67;;;26.23;;
13685;SDS011;6915;48.296;8.874;2024-01-10T12:28:32;46.60;;;24.70;;
13685;SDS011;6915;48.296;8.874;2024-01-10T12:30:59;47.37;;;26.67;;
13685;SDS011;6915;48.296;8.874;2024-01-10T12:33:26;44.63;;;25.83;;
13685;SDS011;6915;48.296;8.874;2024-01-10T12:36:03;47.73;;;26.37;;
13685;SDS011;6915;48.296;8.874;2024-01-10T12:38:33;44.67;;;24.73;;
13685;SDS011;6915;48.296;8.874;2024-01-10T12:41:00;46.50;;;25.87;;
13685;SDS011;6915;48.296;8.874;2024-01-10T12:43:28;43.50;;;24.73;;
13685;SDS011;6915;48.296;8.874;2024-01-10T12:46:02;45.67;;;25.47;;
13685;SDS011;6915;48.296;8.874;2024-01-10T12:48:30;43.60;;;24.47;;
13685;SDS011;6915;48.296;8.874;2024-01-10T12:50:58;45.10;;;24.43;;
13685;SDS011;6915;48.296;8.874;2024-01-10T12:53:27;42.10;;;24.60;;
13685;SDS011;6915;48.296;8.874;2024-01-10T12:55:54;44.03;;;24.23;;
13685;SDS011;6915;48.296;8.874;2024-01-10T12:58:22;44.97;;;25.27;;
13685;SDS011;6915;48.296;8.874;2024-01-10T13:00:50;41.57;;;23.93;;
13685;SDS011;6915;48.296;8.874;2024-01-10T13:03:17;38.87;;;24.33;;
13685;SDS011;6915;48.296;8.874;2024-01-10T13:05:44;40.63;;;24.20;;
13685;SDS011;6915;48.296;8.874;2024-01-10T13:08:11;41.17;;;24.03;;
13685;SDS011;6915;48.296;8.874;2024-01-10T13:10:38;39.80;;;24.30;;
13685;SDS011;6915;48.296;8.874;2024-01-10T13:13:06;40.30;;;24.07;;
13685;SDS011;6915;48.296;8.874;2024-01-10T13:15:33;44.87;;;25.17;;
13685;SDS011;6915;48.296;8.874;2024-01-10T13:18:02;40.33;;;24.77;;
13685;SDS011;6915;48.296;8.874;2024-01-10T13:20:29;45.77;;;26.13;;
13685;SDS011;6915;48.296;8.874;2024-01-10T13:22:56;42.90;;;24.60;;
13685;SDS011;6915;48.296;8.874;2024-01-10T13:25:23;41.97;;;23.77;;
13685;SDS011;6915;48.296;8.874;2024-01-10T13:27:50;44.30;;;24.80;;
13685;SDS011;6915;48.296;8.874;2024-01-10T13:30:17;41.90;;;24.27;;
13685;SDS011;6915;48.296;8.874;2024-01-10T13:32:44;39.83;;;23.10;;
13685;SDS011;6915;48.296;8.874;2024-01-10T13:35:13;42.20;;;22.53;;
13685;SDS011;6915;48.296;8.874;2024-01-10T13:37:41;35.67;;;21.63;;
13685;SDS011;6915;48.296;8.874;2024-01-10T13:40:08;42.23;;;23.20;;
13685;SDS011;6915;48.296;8.874;2024-01-10T13:42:37;40.23;;;22.50;;
13685;SDS011;6915;48.296;8.874;2024-01-10T13:45:05;38.27;;;23.30;;
13685;SDS011;6915;48.296;8.874;2024-01-10T13:47:32;37.87;;;21.57;;
13685;SDS011;6915;48.296;8.874;2024-01-10T13:50:00;42.73;;;23.57;;
13685;SDS011;6915;48.296;8.874;2024-01-10T13:52:30;40.13;;;23.90;;
13685;SDS011;6915;48.296;8.874;2024-01-10T13:54:56;38.67;;;23.00;;
13685;SDS011;6915;48.296;8.874;2024-01-10T13:57:23;40.73;;;22.90;;
13685;SDS011;6915;48.296;8.874;2024-01-10T13:59:50;40.20;;;23.33;;
13685;SDS011;6915;48.296;8.874;2024-01-10T14:02:20;39.70;;;24.70;;
13685;SDS011;6915;48.296;8.874;2024-01-10T14:04:47;40.33;;;23.30;;
13685;SDS011;6915;48.296;8.874;2024-01-10T14:07:14;36.33;;;22.10;;
13685;SDS011;6915;48.296;8.874;2024-01-10T14:09:42;39.13;;;22.87;;
13685;SDS011;6915;48.296;8.874;2024-01-10T14:12:10;38.80;;;23.30;;
13685;SDS011;6915;48.296;8.874;2024-01-10T14:14:37;40.33;;;22.83;;
13685;SDS011;6915;48.296;8.874;2024-01-10T14:17:04;42.60;;;24.17;;
13685;SDS011;6915;48.296;8.874;2024-01-10T14:19:32;35.90;;;22.53;;
13685;SDS011;6915;48.296;8.874;2024-01-10T14:21:58;40.97;;;23.20;;
13685;SDS011;6915;48.296;8.874;2024-01-10T14:24:26;37.17;;;22.23;;
13685;SDS011;6915;48.296;8.874;2024-01-10T14:26:54;39.30;;;23.40;;
13685;SDS011;6915;48.296;8.874;2024-01-10T14:29:21;40.97;;;23.20;;
13685;SDS011;6915;48.296;8.874;2024-01-10T14:31:48;47.43;;;24.80;;
13685;SDS011;6915;48.296;8.874;2024-01-10T14:34:15;35.53;;;22.30;;
13685;SDS011;6915;48.296;8.874;2024-01-10T14:36:42;36.77;;;21.53;;
13685;SDS011;6915;48.296;8.874;2024-01-10T14:39:09;39.40;;;23.13;;
13685;SDS011;6915;48.296;8.874;2024-01-10T14:41:38;41.50;;;22.90;;
13685;SDS011;6915;48.296;8.874;2024-01-10T14:46:36;41.40;;;24.20;;
13685;SDS011;6915;48.296;8.874;2024-01-10T14:49:03;42.97;;;24.23;;
13685;SDS011;6915;48.296;8.874;2024-01-10T14:51:30;45.97;;;23.63;;
13685;SDS011;6915;48.296;8.874;2024-01-10T14:53:58;42.47;;;24.57;;